Time;durP1;ratioP1;P1;durP2;ratioP2;P2;SDS_P1;SDS_P2;PMS_P1;PMS_P2;Temp;Humidity;BMP_temperature;BMP_pressure;BME280_temperature;BME280_humidity;BME280_pressure;Samples;Min_cycle;Max_cycle;Signal;HPM_P1;HPM_P2
2023/03/02 04:01:55;;;;;;;4.50;2.70;;;18.30;45.80;;;;;;5321487;23;46202;-71
2023/03/02 04:04:23;;;;;;;6.00;3.38;;;18.30;45.90;;;;;;4943759;28;47055;-65
2023/03/02 04:06:49;;;;;;;4.38;3.00;;;18.20;45.80;;;;;;4960837;28;45045;-63
2023/03/02 04:09:16;;;;;;;4.43;3.10;;;18.20;45.80;;;;;;4967495;28;46128;-68
2023/03/02 04:11:42;;;;;;;3.45;2.70;;;18.20;45.80;;;;;;4946469;28;45378;-73
2023/03/02 04:14:08;;;;;;;3.35;2.85;;;18.20;45.90;;;;;;4928210;28;47289;-68
2023/03/02 04:16:34;;;;;;;3.78;2.72;;;18.20;45.90;;;;;;4931630;28;45755;-63
2023/03/02 04:19:00;;;;;;;3.35;2.55;;;18.20;45.90;;;;;;4948118;28;45125;-66
2023/03/02 04:21:26;;;;;;;3.75;2.60;;;18.10;45.90;;;;;;4964536;28;44808;-64
2023/03/02 04:23:52;;;;;;;3.65;2.60;;;18.10;45.90;;;;;;4979591;28;45855;-71
2023/03/02 04:26:17;;;;;;;4.18;2.92;;;18.10;46.00;;;;;;4980634;28;45159;-69
2023/03/02 04:28:43;;;;;;;3.28;2.50;;;18.00;45.90;;;;;;4961204;28;45040;-66
2023/03/02 04:31:08;;;;;;;4.00;2.83;;;18.00;46.00;;;;;;4963380;28;44938;-63
2023/03/02 04:33:34;;;;;;;4.05;2.88;;;18.00;46.00;;;;;;4980447;28;46141;-69
2023/03/02 04:35:59;;;;;;;3.80;2.80;;;17.90;46.00;;;;;;4964424;28;45120;-68
2023/03/02 04:38:28;;;;;;;3.88;2.72;;;17.90;46.00;;;;;;4980232;28;45380;-68
2023/03/02 04:40:55;;;;;;;4.00;3.00;;;17.90;46.00;;;;;;4962261;28;45504;-67
2023/03/02 04:43:21;;;;;;;4.05;2.60;;;17.90;46.00;;;;;;4962766;28;46441;-68
2023/03/02 04:45:47;;;;;;;3.85;2.60;;;17.90;46.10;;;;;;4978955;28;45339;-64
2023/03/02 04:48:12;;;;;;;4.00;2.88;;;17.80;46.00;;;;;;4979658;28;45113;-67
2023/03/02 04:50:39;;;;;;;4.88;2.80;;;17.80;46.10;;;;;;4977424;28;47876;-66
2023/03/02 04:53:05;;;;;;;4.35;2.85;;;17.80;45.90;;;;;;4958071;28;45369;-65
2023/03/02 04:55:31;;;;;;;4.18;3.00;;;17.80;46.00;;;;;;4965313;28;45312;-65
2023/03/02 04:57:57;;;;;;;5.35;3.30;;;17.80;46.10;;;;;;4979709;28;45229;-65
2023/03/02 05:00:22;;;;;;;4.82;3.00;;;17.80;46.10;;;;;;4954892;28;45031;-65
2023/03/02 05:02:48;;;;;;;12.05;2.75;;;17.80;46.10;;;;;;4953564;28;45211;-63
2023/03/02 05:05:18;;;;;;;3.90;2.88;;;17.80;46.10;;;;;;4977207;28;45642;-64
2023/03/02 05:07:44;;;;;;;3.67;2.88;;;17.80;46.10;;;;;;4963655;28;45358;-63
2023/03/02 05:10:14;;;;;;;3.75;2.72;;;17.70;46.00;;;;;;4961425;28;45815;-63
2023/03/02 05:13:01;;;;;;;5.35;2.97;;;17.70;46.00;;;;;;4983352;28;45017;-63
2023/03/02 05:15:35;;;;;;;4.03;2.65;;;17.70;46.00;;;;;;4979796;28;44922;-63
2023/03/02 05:18:00;;;;;;;4.03;2.70;;;17.60;46.10;;;;;;4961070;28;45327;-63
2023/03/02 05:20:28;;;;;;;4.68;2.70;;;17.60;46.10;;;;;;4945724;28;46150;-63
2023/03/02 05:22:55;;;;;;;5.07;2.80;;;17.60;46.10;;;;;;4958389;28;45854;-63
2023/03/02 05:25:21;;;;;;;4.60;2.78;;;17.60;46.10;;;;;;4947341;28;44923;-63
2023/03/02 05:27:47;;;;;;;3.58;2.65;;;17.60;46.10;;;;;;4957175;28;45010;-64
2023/03/02 05:30:12;;;;;;;3.50;2.65;;;17.60;46.20;;;;;;4948407;28;44954;-64
2023/03/02 05:32:38;;;;;;;4.68;3.08;;;17.50;46.10;;;;;;4965256;28;47247;-64
2023/03/02 05:35:04;;;;;;;4.38;2.78;;;17.50;46.10;;;;;;4959079;28;44990;-64
2023/03/02 05:37:30;;;;;;;5.03;3.45;;;17.50;46.10;;;;;;4945594;28;44880;-64
2023/03/02 05:39:55;;;;;;;4.03;2.97;;;17.50;46.10;;;;;;4975736;28;45010;-64
2023/03/02 05:42:21;;;;;;;4.45;2.92;;;17.40;46.10;;;;;;4979806;28;45044;-64
2023/03/02 05:44:46;;;;;;;4.30;2.90;;;17.40;46.20;;;;;;4961971;28;45003;-64
2023/03/02 05:47:12;;;;;;;3.85;2.88;;;17.40;46.20;;;;;;4966180;28;46237;-64
2023/03/02 05:49:37;;;;;;;4.13;2.90;;;17.40;46.20;;;;;;4979096;28;45166;-64
2023/03/02 05:52:03;;;;;;;3.17;2.63;;;17.40;46.20;;;;;;4981421;28;45157;-64
2023/03/02 05:54:28;;;;;;;4.13;2.95;;;17.40;46.20;;;;;;4982793;28;45177;-64
2023/03/02 05:56:54;;;;;;;3.75;2.70;;;17.40;46.20;;;;;;4954974;28;44930;-64
2023/03/02 05:59:19;;;;;;;4.32;2.95;;;17.30;46.10;;;;;;4965651;28;44942;-64
2023/03/02 06:01:45;;;;;;;3.67;2.58;;;17.30;46.20;;;;;;4956189;28;46029;-64
2023/03/02 06:04:10;;;;;;;3.72;2.75;;;17.30;46.20;;;;;;4980074;28;45177;-65
2023/03/02 06:06:36;;;;;;;6.35;3.17;;;17.30;46.20;;;;;;4966522;28;45399;-64
2023/03/02 06:09:02;;;;;;;4.20;3.00;;;17.30;46.20;;;;;;4966075;28;45170;-64
2023/03/02 06:11:29;;;;;;;4.93;3.00;;;17.20;46.20;;;;;;4978699;28;45518;-64
2023/03/02 06:13:54;;;;;;;3.17;2.50;;;17.20;46.20;;;;;;4966509;28;45021;-64
2023/03/02 06:16:20;;;;;;;3.90;2.53;;;17.20;46.20;;;;;;4947119;28;45425;-64
2023/03/02 06:18:45;;;;;;;3.78;2.97;;;17.20;46.20;;;;;;4961007;28;45105;-64
2023/03/02 06:21:11;;;;;;;4.20;2.88;;;17.20;46.30;;;;;;4966174;28;47226;-64
2023/03/02 06:23:37;;;;;;;3.78;2.50;;;17.10;46.20;;;;;;4981255;28;45375;-64
2023/03/02 06:26:09;;;;;;;2.97;2.33;;;17.10;46.30;;;;;;4982977;28;45158;-64
2023/03/02 06:28:35;;;;;;;5.00;3.00;;;17.10;46.60;;;;;;4969702;28;45214;-63
2023/03/02 06:31:00;;;;;;;4.05;2.85;;;17.10;46.30;;;;;;4963828;28;45247;-64
2023/03/02 06:33:26;;;;;;;4.15;3.10;;;17.10;46.30;;;;;;4961912;28;45014;-64
2023/03/02 06:35:51;;;;;;;4.45;3.10;;;17.00;46.30;;;;;;4964598;28;45791;-64
2023/03/02 06:38:17;;;;;;;4.28;2.97;;;17.00;46.30;;;;;;4964401;28;45609;-64
2023/03/02 06:40:42;;;;;;;4.00;3.13;;;17.00;46.30;;;;;;4961980;28;46589;-64
2023/03/02 06:43:08;;;;;;;3.45;2.75;;;17.00;46.30;;;;;;4967527;28;45282;-64
2023/03/02 06:45:34;;;;;;;3.72;2.72;;;17.00;46.30;;;;;;4964848;28;45007;-64
2023/03/02 06:48:00;;;;;;;3.78;2.88;;;17.00;46.30;;;;;;4983678;28;45549;-64
2023/03/02 06:50:26;;;;;;;4.25;2.72;;;17.00;46.30;;;;;;4979087;28;45193;-64
2023/03/02 06:52:52;;;;;;;3.35;2.60;;;17.00;46.30;;;;;;4981596;28;48147;-64
2023/03/02 06:55:18;;;;;;;3.95;3.05;;;16.90;46.20;;;;;;4962329;28;44958;-64
2023/03/02 06:57:43;;;;;;;4.05;3.15;;;16.90;46.20;;;;;;4981367;28;45886;-64
2023/03/02 07:00:14;;;;;;;4.00;3.03;;;16.90;46.30;;;;;;4961630;28;45722;-64
2023/03/02 07:02:39;;;;;;;4.05;2.65;;;16.90;46.30;;;;;;4964871;28;44759;-64
2023/03/02 07:05:05;;;;;;;3.92;2.95;;;16.90;46.30;;;;;;4979770;28;45308;-64
2023/03/02 07:07:31;;;;;;;13.48;8.52;;;16.90;45.60;;;;;;4931164;28;44838;-64
2023/03/02 07:09:56;;;;;;;13.02;9.75;;;16.70;42.70;;;;;;4978653;28;45228;-64
2023/03/02 07:12:22;;;;;;;20.65;11.50;;;16.50;41.30;;;;;;4981752;28;45054;-64
2023/03/02 07:14:47;;;;;;;23.48;14.60;;;16.30;40.30;;;;;;4982205;28;44770;-63
2023/03/02 07:17:13;;;;;;;23.65;13.80;;;16.10;39.60;;;;;;4963115;28;45076;-65
2023/03/02 07:19:39;;;;;;;22.67;12.93;;;15.90;39.70;;;;;;4979729;28;44883;-65
2023/03/02 07:22:04;;;;;;;17.80;11.85;;;15.80;40.20;;;;;;4977140;28;45002;-65
2023/03/02 07:24:30;;;;;;;22.08;12.70;;;15.80;40.20;;;;;;4982927;28;45771;-65
2023/03/02 07:26:56;;;;;;;18.98;12.23;;;15.80;40.20;;;;;;4964560;28;45043;-64
2023/03/02 07:29:21;;;;;;;18.35;10.45;;;15.80;40.30;;;;;;4967552;28;45847;-64
2023/03/02 07:31:47;;;;;;;16.30;10.73;;;15.90;40.40;;;;;;4967977;28;45066;-64
2023/03/02 07:34:14;;;;;;;16.40;9.43;;;16.00;41.30;;;;;;4979819;28;45147;-64
2023/03/02 07:36:39;;;;;;;16.90;9.63;;;16.20;41.10;;;;;;4966396;28;45118;-64
2023/03/02 07:39:05;;;;;;;14.70;10.50;;;16.50;41.00;;;;;;4984588;28;45009;-64
2023/03/02 07:41:31;;;;;;;13.43;8.98;;;16.60;40.70;;;;;;4966813;28;45113;-64
2023/03/02 07:43:56;;;;;;;12.32;8.65;;;16.90;40.40;;;;;;4948855;28;45187;-64
2023/03/02 07:46:22;;;;;;;15.20;9.20;;;17.10;40.30;;;;;;4967214;28;45290;-64
2023/03/02 07:48:47;;;;;;;14.07;8.18;;;17.30;40.10;;;;;;4964899;28;45743;-64
2023/03/02 07:51:13;;;;;;;11.93;7.97;;;17.50;40.00;;;;;;4979635;28;44917;-64
2023/03/02 07:53:38;;;;;;;12.68;7.70;;;17.60;39.80;;;;;;4982589;28;47747;-64
2023/03/02 07:56:08;;;;;;;11.68;7.35;;;17.80;39.80;;;;;;4962676;28;45701;-64
2023/03/02 07:58:33;;;;;;;10.50;7.55;;;18.00;39.70;;;;;;4947138;28;45095;-64
2023/03/02 08:00:59;;;;;;;10.60;7.38;;;18.20;39.60;;;;;;4959170;28;45321;-64
2023/03/02 08:03:25;;;;;;;17.67;6.85;;;18.30;39.60;;;;;;4963882;28;44841;-64
2023/03/02 08:05:50;;;;;;;8.02;5.65;;;18.40;39.60;;;;;;4954903;28;44947;-64
2023/03/02 08:08:16;;;;;;;7.97;5.63;;;18.50;39.60;;;;;;4959013;28;45955;-64
2023/03/02 08:10:41;;;;;;;9.13;6.18;;;18.60;39.70;;;;;;4978669;28;44933;-64
2023/03/02 08:13:07;;;;;;;10.20;6.10;;;18.70;39.60;;;;;;4942610;28;45802;-64
2023/03/02 08:15:32;;;;;;;9.02;5.18;;;18.80;39.60;;;;;;4939614;28;45864;-64
2023/03/02 08:17:58;;;;;;;7.63;5.55;;;18.90;39.50;;;;;;4980071;28;45381;-64
2023/03/02 08:20:23;;;;;;;7.75;5.57;;;19.10;39.60;;;;;;4952990;28;45191;-64
2023/03/02 08:22:50;;;;;;;6.60;5.15;;;19.20;39.70;;;;;;4977163;28;45253;-64
2023/03/02 08:25:16;;;;;;;6.82;4.90;;;19.30;39.60;;;;;;4960826;28;44981;-64
2023/03/02 08:27:43;;;;;;;7.25;4.90;;;19.40;39.40;;;;;;4959334;28;45088;-64
2023/03/02 08:30:09;;;;;;;6.32;4.65;;;19.50;39.50;;;;;;4924542;28;45393;-64
2023/03/02 08:32:35;;;;;;;7.88;4.80;;;19.60;39.50;;;;;;4966484;28;44764;-64
2023/03/02 08:35:01;;;;;;;8.00;5.10;;;19.70;39.40;;;;;;4949286;28;45072;-64
2023/03/02 08:37:27;;;;;;;6.82;4.90;;;19.90;39.40;;;;;;4956304;28;45211;-64
2023/03/02 08:39:52;;;;;;;8.07;5.47;;;19.90;39.30;;;;;;4959059;28;45414;-64
2023/03/02 08:42:18;;;;;;;10.32;5.40;;;20.00;39.30;;;;;;4978090;28;45285;-64
2023/03/02 08:44:44;;;;;;;7.85;4.82;;;20.10;39.20;;;;;;4959918;28;44886;-64
2023/03/02 08:47:10;;;;;;;5.72;4.13;;;20.20;39.30;;;;;;4932216;28;45525;-64
2023/03/02 08:49:38;;;;;;;9.25;4.82;;;20.30;39.30;;;;;;4960432;28;45226;-64
2023/03/02 08:52:03;;;;;;;8.35;5.60;;;20.30;39.20;;;;;;4964195;28;44725;-64
2023/03/02 08:54:29;;;;;;;7.95;4.93;;;20.40;39.20;;;;;;4962975;28;44720;-64
2023/03/02 08:56:54;;;;;;;7.57;5.10;;;20.50;39.20;;;;;;4978968;28;46025;-63
2023/03/02 08:59:20;;;;;;;7.30;4.97;;;20.50;39.10;;;;;;4978006;28;45036;-66
2023/03/02 09:01:46;;;;;;;6.00;4.25;;;20.60;39.00;;;;;;4979356;28;45028;-63
2023/03/02 09:04:12;;;;;;;9.25;5.70;;;20.70;39.00;;;;;;4969494;28;45104;-63
2023/03/02 09:06:40;;;;;;;7.63;4.75;;;20.70;39.00;;;;;;4954230;28;45245;-63
2023/03/02 09:09:05;;;;;;;7.95;4.97;;;20.90;38.90;;;;;;4963546;28;45210;-63
2023/03/02 09:11:31;;;;;;;7.10;4.90;;;20.90;38.80;;;;;;4969223;28;44884;-63
2023/03/02 09:13:57;;;;;;;6.63;4.35;;;20.90;38.80;;;;;;4972804;28;45353;-63
2023/03/02 09:16:25;;;;;;;8.82;4.95;;;21.00;38.70;;;;;;4981579;28;45998;-63
2023/03/02 09:18:51;;;;;;;5.78;4.30;;;21.10;38.80;;;;;;4981111;28;45122;-63
2023/03/02 09:21:17;;;;;;;7.38;4.68;;;21.10;38.80;;;;;;4979981;28;45379;-63
2023/03/02 09:23:42;;;;;;;7.07;4.30;;;21.20;38.70;;;;;;4962161;28;45181;-63
2023/03/02 09:26:08;;;;;;;6.22;4.13;;;21.20;38.70;;;;;;4970087;28;45006;-63
2023/03/02 09:28:34;;;;;;;6.22;4.45;;;21.30;38.70;;;;;;4964239;28;45266;-63
2023/03/02 09:31:01;;;;;;;6.35;4.40;;;21.30;38.70;;;;;;4979828;28;45230;-63
2023/03/02 09:33:27;;;;;;;6.93;4.63;;;21.30;38.70;;;;;;4955291;28;45228;-63
2023/03/02 09:35:53;;;;;;;5.80;4.00;;;21.40;38.70;;;;;;4966443;28;45001;-63
2023/03/02 09:38:18;;;;;;;6.40;4.35;;;21.40;38.70;;;;;;4966867;28;45046;-63
2023/03/02 09:41:08;;;;;;;5.20;3.97;;;21.50;38.60;;;;;;4979410;28;44947;-63
2023/03/02 09:44:01;;;;;;;6.00;4.00;;;21.50;38.20;;;;;;4979780;28;46323;-63
2023/03/02 09:46:51;;;;;;;5.93;3.78;;;21.60;38.40;;;;;;4982027;28;48267;-63
2023/03/02 09:49:31;;;;;;;5.15;3.58;;;21.70;38.30;;;;;;4949927;28;45391;-63
2023/03/02 09:52:15;;;;;;;6.10;4.18;;;21.80;38.20;;;;;;4961933;28;45306;-63
2023/03/02 09:54:41;;;;;;;6.22;4.05;;;21.80;38.00;;;;;;4985791;28;45813;-63
2023/03/02 09:57:24;;;;;;;6.18;4.15;;;21.90;38.40;;;;;;4983687;28;45935;-63
2023/03/02 09:59:55;;;;;;;;;;;21.90;37.80;;;;;;4968234;28;45056;-63
2023/03/02 10:02:23;;;;;;;4.88;3.65;;;22.00;37.70;;;;;;4980894;28;44961;-63
2023/03/02 10:04:52;;;;;;;6.05;4.07;;;22.00;38.20;;;;;;4983876;28;44852;-62
2023/03/02 10:07:29;;;;;;;6.50;3.83;;;22.10;38.30;;;;;;4952294;28;45046;-63
2023/03/02 10:10:03;;;;;;;5.78;3.92;;;22.10;37.90;;;;;;4982164;28;44938;-64
2023/03/02 10:12:47;;;;;;;6.38;4.28;;;22.20;38.20;;;;;;4950153;28;44949;-63
2023/03/02 10:15:24;;;;;;;5.63;4.07;;;22.30;37.80;;;;;;4977378;28;44777;-63
2023/03/02 10:17:58;;;;;;;5.10;4.30;;;22.30;38.10;;;;;;4947130;28;46229;-63
2023/03/02 10:20:31;;;;;;;6.28;4.20;;;22.40;38.00;;;;;;4966965;28;45017;-63
2023/03/02 10:23:04;;;;;;;5.10;3.90;;;22.40;38.00;;;;;;4932365;28;45013;-64
2023/03/02 10:25:43;;;;;;;5.63;4.07;;;22.50;38.00;;;;;;4967049;28;45600;-64
2023/03/02 10:28:20;;;;;;;6.43;4.32;;;22.50;38.00;;;;;;4965860;28;45540;-64
2023/03/02 10:30:48;;;;;;;4.75;3.88;;;22.60;37.80;;;;;;4963589;28;45833;-64
2023/03/02 10:33:16;;;;;;;4.95;3.72;;;22.60;38.00;;;;;;4959768;28;44821;-64
2023/03/02 10:35:50;;;;;;;5.32;3.33;;;22.70;38.00;;;;;;4978242;28;45148;-64
2023/03/02 10:38:17;;;;;;;5.97;4.30;;;22.80;37.80;;;;;;4968235;28;45614;-64
2023/03/02 10:40:46;;;;;;;6.20;4.30;;;22.80;38.00;;;;;;4967367;28;44979;-63
2023/03/02 10:43:24;;;;;;;5.03;3.70;;;22.80;37.90;;;;;;4967251;28;44633;-64
2023/03/02 10:46:06;;;;;;;6.97;4.03;;;22.90;37.70;;;;;;4948761;28;44899;-64
2023/03/02 10:48:32;;;;;;;5.13;3.45;;;23.00;37.70;;;;;;4935295;28;47426;-64
2023/03/02 10:50:58;;;;;;;4.95;3.88;;;23.00;37.90;;;;;;4966741;28;45527;-64
2023/03/02 10:53:23;;;;;;;4.75;3.90;;;23.00;37.90;;;;;;4937779;28;45717;-64
2023/03/02 10:55:51;;;;;;;6.00;3.28;;;23.10;37.90;;;;;;4963144;28;44802;-64
2023/03/02 10:58:32;;;;;;;5.55;3.20;;;23.10;37.80;;;;;;4946556;28;45286;-64
2023/03/02 11:00:59;;;;;;;7.90;3.92;;;23.20;37.70;;;;;;4960062;28;45204;-63
2023/03/02 11:03:24;;;;;;;5.40;3.42;;;23.20;37.80;;;;;;4937816;28;45005;-63
2023/03/02 11:05:50;;;;;;;5.50;4.00;;;23.30;37.80;;;;;;4958490;28;45031;-64
2023/03/02 11:08:24;;;;;;;5.60;3.78;;;23.30;37.80;;;;;;4958330;28;45477;-64
2023/03/02 11:10:59;;;;;;;5.18;3.80;;;23.30;37.60;;;;;;4930112;28;45583;-64
2023/03/02 11:13:27;;;;;;;4.03;3.13;;;23.30;37.70;;;;;;4942455;28;44859;-64
2023/03/02 11:15:59;;;;;;;4.72;3.63;;;23.20;38.00;;;;;;4963323;28;44935;-64
2023/03/02 11:18:41;;;;;;;6.28;4.20;;;23.20;38.00;;;;;;4963649;28;46198;-65
2023/03/02 11:21:14;;;;;;;6.88;3.72;;;23.20;38.00;;;;;;4960830;28;44640;-65
2023/03/02 11:24:01;;;;;;;4.93;3.88;;;23.20;38.00;;;;;;4962750;28;45175;-64
2023/03/02 11:26:38;;;;;;;4.57;3.38;;;23.30;38.00;;;;;;4960459;28;45231;-65
2023/03/02 11:29:10;;;;;;;6.10;3.03;;;23.40;38.00;;;;;;4962627;28;45142;-66
2023/03/02 11:31:42;;;;;;;6.03;4.28;;;23.40;37.90;;;;;;4964579;28;44952;-65
2023/03/02 11:34:40;;;;;;;7.32;3.10;;;23.50;38.00;;;;;;4960336;28;45010;-66
2023/03/02 11:37:23;;;;;;;5.90;3.67;;;23.50;37.60;;;;;;4947601;28;45079;-65
2023/03/02 11:39:48;;;;;;;;;;;23.60;37.70;;;;;;4943531;28;45249;-65
2023/03/02 11:42:32;;;;;;;5.40;3.20;;;23.60;37.50;;;;;;4961016;28;48278;-66
2023/03/02 11:45:01;;;;;;;4.93;3.60;;;23.70;37.60;;;;;;4965644;28;48093;-67
2023/03/02 11:47:27;;;;;;;4.68;3.33;;;23.60;37.80;;;;;;4947169;28;44764;-65
2023/03/02 11:49:54;;;;;;;4.00;3.03;;;23.60;37.90;;;;;;4945224;28;46041;-63
2023/03/02 11:52:21;;;;;;;5.38;3.75;;;23.50;38.00;;;;;;4930018;28;44808;-66
2023/03/02 11:54:59;;;;;;;3.83;3.10;;;23.50;38.10;;;;;;4933838;28;44811;-65
2023/03/02 11:57:51;;;;;;;4.65;3.42;;;23.50;38.10;;;;;;4947674;28;46793;-65
2023/03/02 12:00:36;;;;;;;5.47;3.50;;;23.60;37.90;;;;;;4955886;28;45305;-65
2023/03/02 12:03:14;;;;;;;5.13;3.47;;;23.60;38.20;;;;;;4972737;28;45340;-65
2023/03/02 12:05:41;;;;;;;5.30;3.50;;;23.60;38.00;;;;;;4962245;28;45753;-65
2023/03/02 12:08:30;;;;;;;4.03;3.30;;;23.60;38.20;;;;;;4935048;28;45919;-65
2023/03/02 12:11:16;;;;;;;4.70;3.53;;;23.60;37.90;;;;;;4966709;28;45270;-65
2023/03/02 12:13:42;;;;;;;4.40;3.30;;;23.60;38.20;;;;;;4939280;28;45560;-65
2023/03/02 12:16:32;;;;;;;5.00;3.20;;;23.60;38.20;;;;;;4935388;28;45465;-65
2023/03/02 12:18:58;;;;;;;4.18;3.22;;;23.70;38.10;;;;;;4968124;28;45134;-65
2023/03/02 12:21:24;;;;;;;4.65;3.20;;;23.70;38.30;;;;;;4947385;28;46128;-65
2023/03/02 12:23:49;;;;;;;5.10;3.22;;;23.70;38.20;;;;;;4947430;28;44973;-66
2023/03/02 12:26:18;;;;;;;5.20;3.40;;;23.70;38.30;;;;;;4968420;28;45637;-64
2023/03/02 12:29:01;;;;;;;3.53;2.60;;;23.70;38.20;;;;;;4968442;28;45499;-66
2023/03/02 12:31:38;;;;;;;3.92;2.75;;;23.70;38.10;;;;;;4937084;28;45367;-64
2023/03/02 12:34:25;;;;;;;4.60;3.33;;;23.80;38.10;;;;;;4935326;28;44636;-64
2023/03/02 12:36:53;;;;;;;4.00;3.00;;;23.80;38.10;;;;;;4951351;28;45482;-66
2023/03/02 12:39:42;;;;;;;4.40;3.38;;;23.90;38.20;;;;;;4940297;28;45244;-65
2023/03/02 12:42:42;;;;;;;4.55;3.05;;;23.80;38.10;;;;;;4957549;28;45946;-65
2023/03/02 12:45:19;;;;;;;4.28;3.28;;;23.90;38.00;;;;;;4939512;28;45277;-65
2023/03/02 12:47:46;;;;;;;4.03;2.90;;;23.90;38.20;;;;;;4971602;28;45625;-65
2023/03/02 12:50:18;;;;;;;4.70;3.28;;;23.90;38.20;;;;;;4937152;28;45493;-64
2023/03/02 12:52:43;;;;;;;3.80;2.95;;;23.90;38.20;;;;;;4942175;28;45500;-64
2023/03/02 12:55:15;;;;;;;4.10;3.13;;;23.90;38.20;;;;;;4955295;28;45401;-65
2023/03/02 12:57:52;;;;;;;5.22;3.40;;;24.00;38.30;;;;;;4951783;28;44753;-64
2023/03/02 13:00:19;;;;;;;3.78;2.70;;;24.00;38.20;;;;;;4917250;28;45484;-65
2023/03/02 13:02:50;;;;;;;4.20;2.92;;;24.00;38.30;;;;;;4938022;28;47992;-64
2023/03/02 13:05:21;;;;;;;4.80;3.30;;;24.00;38.30;;;;;;4936463;28;45891;-65
2023/03/02 13:08:03;;;;;;;4.55;3.05;;;24.00;38.20;;;;;;4967348;28;45646;-64
2023/03/02 13:10:34;;;;;;;4.15;2.97;;;24.00;38.10;;;;;;4950639;28;46208;-67
2023/03/02 13:13:00;;;;;;;5.10;3.58;;;24.00;38.30;;;;;;4937405;28;46979;-65
2023/03/02 13:15:25;;;;;;;4.80;3.20;;;24.00;38.30;;;;;;4952548;28;46056;-66
2023/03/02 13:17:56;;;;;;;4.13;2.72;;;24.00;38.30;;;;;;4956896;28;45600;-66
2023/03/02 13:20:24;;;;;;;3.30;2.58;;;24.10;38.40;;;;;;4941272;28;45393;-65
2023/03/02 13:22:49;;;;;;;3.90;2.80;;;24.10;38.40;;;;;;4926488;28;45491;-65
2023/03/02 13:25:27;;;;;;;3.97;2.85;;;24.10;38.40;;;;;;4968051;28;45360;-65
2023/03/02 13:27:53;;;;;;;3.92;2.53;;;24.10;38.20;;;;;;4956110;28;45313;-66
2023/03/02 13:30:25;;;;;;;3.63;2.80;;;24.10;38.30;;;;;;4952967;28;45236;-66
2023/03/02 13:32:53;;;;;;;3.85;2.90;;;24.10;38.30;;;;;;4941464;28;46669;-65
2023/03/02 13:35:21;;;;;;;3.72;2.80;;;24.10;38.30;;;;;;4935240;28;44683;-65
2023/03/02 13:37:54;;;;;;;4.18;2.95;;;24.10;38.30;;;;;;4939471;28;45537;-64
2023/03/02 13:40:26;;;;;;;4.80;2.70;;;24.20;38.30;;;;;;4954144;28;44948;-65
2023/03/02 13:42:52;;;;;;;4.22;2.97;;;24.20;38.30;;;;;;4967081;28;45800;-65
2023/03/02 13:45:23;;;;;;;4.65;2.75;;;24.20;38.40;;;;;;4949052;28;45263;-64
2023/03/02 13:47:49;;;;;;;3.55;2.88;;;24.20;38.30;;;;;;4970097;28;45453;-65
2023/03/02 13:50:28;;;;;;;4.25;3.05;;;24.20;38.30;;;;;;4933926;28;45518;-65
2023/03/02 13:52:55;;;;;;;3.88;2.88;;;24.30;38.40;;;;;;4952497;28;45943;-65
2023/03/02 13:55:21;;;;;;;5.05;3.30;;;24.30;38.50;;;;;;4940556;28;45394;-65
2023/03/02 13:57:48;;;;;;;4.28;3.05;;;24.20;38.40;;;;;;4923440;28;46532;-65
2023/03/02 14:00:22;;;;;;;5.25;2.55;;;24.30;38.40;;;;;;4938328;28;46395;-65
2023/03/02 14:02:49;;;;;;;3.30;2.45;;;24.30;38.40;;;;;;4921123;28;45839;-65
2023/03/02 14:05:19;;;;;;;4.97;2.53;;;24.30;38.40;;;;;;4943484;28;45237;-65
2023/03/02 14:07:45;;;;;;;4.20;2.72;;;24.30;38.50;;;;;;4905818;28;45647;-65
2023/03/02 14:10:14;;;;;;;3.65;2.30;;;24.40;38.50;;;;;;4967911;28;44792;-65
2023/03/02 14:12:41;;;;;;;3.15;2.60;;;24.40;38.50;;;;;;4920522;28;46394;-65
2023/03/02 14:15:09;;;;;;;3.33;2.72;;;24.30;38.40;;;;;;4969676;28;44669;-65
2023/03/02 14:17:34;;;;;;;3.55;2.40;;;24.40;38.40;;;;;;4921498;28;45388;-65
2023/03/02 14:20:00;;;;;;;4.38;2.63;;;24.40;38.40;;;;;;4968618;28;45447;-65
2023/03/02 14:22:28;;;;;;;3.28;2.63;;;24.40;38.40;;;;;;4968786;28;45522;-65
2023/03/02 14:24:53;;;;;;;4.70;2.63;;;24.40;38.40;;;;;;4938566;28;44826;-65
2023/03/02 14:27:19;;;;;;;3.50;2.67;;;24.40;38.50;;;;;;4966293;28;44990;-65
2023/03/02 14:29:45;;;;;;;3.45;2.53;;;24.40;38.50;;;;;;4941159;28;45705;-66
2023/03/02 14:32:12;;;;;;;4.03;2.70;;;24.40;38.40;;;;;;4955163;28;45947;-65
2023/03/02 14:34:38;;;;;;;3.78;2.60;;;24.40;38.40;;;;;;4938299;28;45431;-65
2023/03/02 14:37:05;;;;;;;5.82;2.85;;;24.50;38.80;;;;;;4933483;28;45168;-65
2023/03/02 14:39:37;;;;;;;3.67;2.38;;;24.50;38.50;;;;;;4935004;28;45450;-65
2023/03/02 14:42:04;;;;;;;2.97;2.20;;;24.50;38.50;;;;;;4954799;28;45031;-64
2023/03/02 14:44:29;;;;;;;4.15;2.30;;;24.50;38.60;;;;;;4956826;28;45284;-64
2023/03/02 14:46:56;;;;;;;4.95;2.42;;;24.50;38.50;;;;;;4971394;28;45485;-64
2023/03/02 14:49:22;;;;;;;3.13;2.45;;;24.60;38.50;;;;;;4918544;28;45747;-66
2023/03/02 14:52:07;;;;;;;5.38;2.67;;;24.60;38.50;;;;;;4939503;28;45354;-65
2023/03/02 14:54:42;;;;;;;3.92;2.55;;;24.60;38.40;;;;;;4969323;28;45344;-66
2023/03/02 14:57:24;;;;;;;3.17;2.30;;;24.60;38.50;;;;;;4966807;28;45472;-65
2023/03/02 14:59:49;;;;;;;4.65;2.80;;;24.60;38.50;;;;;;4936022;28;45304;-65
2023/03/02 15:02:15;;;;;;;2.95;2.30;;;24.60;38.60;;;;;;4952981;28;45727;-65
2023/03/02 15:04:41;;;;;;;3.13;2.35;;;24.60;38.60;;;;;;4921305;28;45001;-64
2023/03/02 15:07:12;;;;;;;2.80;2.25;;;24.60;38.60;;;;;;4955492;28;45132;-66
2023/03/02 15:09:38;;;;;;;6.07;2.58;;;24.60;38.50;;;;;;4952430;28;45662;-66
2023/03/02 15:12:04;;;;;;;6.47;2.50;;;24.70;38.60;;;;;;4951583;28;46169;-65
2023/03/02 15:14:30;;;;;;;3.20;2.33;;;24.60;38.60;;;;;;4921556;28;45759;-66
2023/03/02 15:16:56;;;;;;;5.38;2.70;;;24.70;38.60;;;;;;4950242;28;45579;-66
2023/03/02 15:19:21;;;;;;;5.22;2.40;;;24.70;38.60;;;;;;4953733;28;45865;-65
2023/03/02 15:21:47;;;;;;;3.58;2.58;;;24.70;38.70;;;;;;4919470;28;46126;-65
2023/03/02 15:24:12;;;;;;;2.30;2.10;;;24.70;38.70;;;;;;4938752;28;45296;-65
2023/03/02 15:26:39;;;;;;;3.30;2.40;;;24.70;38.60;;;;;;4937115;28;44982;-64
2023/03/02 15:29:05;;;;;;;4.53;2.38;;;24.70;38.70;;;;;;4968408;28;45586;-65
2023/03/02 15:31:32;;;;;;;4.53;2.67;;;24.70;38.60;;;;;;4934258;28;47631;-65
2023/03/02 15:33:58;;;;;;;3.22;2.13;;;24.70;38.60;;;;;;4953000;28;45189;-65
2023/03/02 15:36:25;;;;;;;2.70;2.08;;;24.70;38.70;;;;;;4934005;28;44805;-64
2023/03/02 15:38:50;;;;;;;5.20;2.30;;;24.70;39.30;;;;;;4938547;28;45314;-65
2023/03/02 15:41:16;;;;;;;3.15;2.28;;;24.70;38.70;;;;;;4946809;28;45241;-64
2023/03/02 15:43:42;;;;;;;3.70;2.42;;;24.80;38.70;;;;;;4973581;28;44948;-65
2023/03/02 15:46:08;;;;;;;3.53;2.47;;;24.80;38.70;;;;;;4967717;28;45358;-65
2023/03/02 15:48:34;;;;;;;2.92;2.15;;;24.80;38.70;;;;;;4938491;28;45596;-65
2023/03/02 15:51:01;;;;;;;4.13;2.35;;;24.80;38.70;;;;;;4951602;28;45385;-65
2023/03/02 15:53:27;;;;;;;4.32;2.22;;;24.80;38.70;;;;;;4921780;28;45218;-64
2023/03/02 15:55:52;;;;;;;3.30;2.35;;;24.80;38.70;;;;;;4954658;28;44708;-66
2023/03/02 15:58:18;;;;;;;3.95;2.63;;;24.80;38.70;;;;;;4970286;28;45386;-65
2023/03/02 16:00:44;;;;;;;2.42;2.00;;;24.80;38.80;;;;;;4927975;28;45997;-64
2023/03/02 16:03:11;;;;;;;3.00;2.35;;;24.80;38.80;;;;;;4934436;28;48356;-65
2023/03/02 16:05:37;;;;;;;5.07;2.42;;;24.80;39.40;;;;;;4946991;28;45531;-64
2023/03/02 16:08:02;;;;;;;4.10;2.40;;;24.80;38.80;;;;;;4931022;28;45316;-64
2023/03/02 16:10:30;;;;;;;2.83;2.20;;;24.80;38.70;;;;;;4941619;28;45152;-64
2023/03/02 16:13:02;;;;;;;5.95;2.22;;;24.80;38.70;;;;;;4947331;28;45400;-64
2023/03/02 16:15:28;;;;;;;2.90;2.17;;;24.80;38.70;;;;;;4949768;28;45438;-64
2023/03/02 16:17:53;;;;;;;3.30;2.25;;;24.80;38.80;;;;;;4948891;28;45802;-64
2023/03/02 16:20:19;;;;;;;2.85;2.20;;;24.80;38.80;;;;;;4945835;28;45493;-65
2023/03/02 16:22:44;;;;;;;3.05;2.17;;;24.80;38.80;;;;;;4949325;28;45658;-64
2023/03/02 16:25:10;;;;;;;3.00;2.33;;;24.80;38.80;;;;;;4944875;28;45784;-64
2023/03/02 16:27:35;;;;;;;3.83;2.40;;;24.80;38.90;;;;;;4942842;28;45214;-65
2023/03/02 16:30:01;;;;;;;4.10;2.40;;;24.70;38.80;;;;;;4945742;28;47096;-65
2023/03/02 16:32:27;;;;;;;6.82;2.13;;;24.70;38.80;;;;;;4947363;28;46154;-64
2023/03/02 16:34:55;;;;;;;3.95;2.17;;;24.70;38.80;;;;;;4946708;28;45315;-65
2023/03/02 16:37:21;;;;;;;2.90;2.15;;;24.70;38.80;;;;;;4947853;28;45028;-65
2023/03/02 16:39:46;;;;;;;4.63;2.50;;;24.70;38.80;;;;;;4947774;28;45733;-65
2023/03/02 16:42:12;;;;;;;5.47;2.30;;;24.70;38.80;;;;;;4945061;28;45589;-64
2023/03/02 16:44:38;;;;;;;3.92;2.03;;;24.70;38.80;;;;;;4948766;28;45271;-65
2023/03/02 16:47:04;;;;;;;2.72;1.98;;;24.70;38.90;;;;;;4947479;28;45535;-65
2023/03/02 16:49:29;;;;;;;3.10;2.28;;;24.60;38.90;;;;;;4946686;28;46226;-64
2023/03/02 16:51:56;;;;;;;2.53;2.22;;;24.50;39.10;;;;;;4945928;28;45283;-65
2023/03/02 16:54:22;;;;;;;3.97;2.20;;;24.40;39.20;;;;;;4945439;28;45739;-65